Time;durP1;ratioP1;P1;durP2;ratioP2;P2;SDS_P1;SDS_P2;PMS_P1;PMS_P2;Temp;Humidity;BMP_temperature;BMP_pressure;BME280_temperature;BME280_humidity;BME280_pressure;Samples;Min_cycle;Max_cycle;Signal;HPM_P1;HPM_P2
2021/08/17 00:01:48;;;;;;;9.13;2.17;;;16.10;95.70;;;;;;5049927;28;20029;-77
2021/08/17 00:04:13;;;;;;;8.38;2.10;;;16.10;95.70;;;;;;5050019;28;20032;-76
2021/08/17 00:06:39;;;;;;;4.57;1.98;;;16.00;95.60;;;;;;5048577;28;20072;-77
2021/08/17 00:09:05;;;;;;;7.38;2.28;;;16.00;95.70;;;;;;5031877;28;20082;-76
2021/08/17 00:11:31;;;;;;;10.30;2.60;;;16.00;95.70;;;;;;5047907;28;20040;-77
2021/08/17 00:13:57;;;;;;;6.20;2.10;;;16.00;95.80;;;;;;5048243;28;20049;-78
2021/08/17 00:16:23;;;;;;;6.50;2.05;;;16.00;95.70;;;;;;5049658;28;20056;-77
2021/08/17 00:18:48;;;;;;;9.27;2.08;;;16.00;95.70;;;;;;5049676;28;20104;-77
2021/08/17 00:21:15;;;;;;;4.80;2.10;;;16.10;95.70;;;;;;5049641;28;20495;-76
2021/08/17 00:23:41;;;;;;;8.82;1.80;;;16.00;95.70;;;;;;5048371;28;20407;-76
2021/08/17 00:26:07;;;;;;;;;;;16.00;95.70;;;;;;5049878;28;20043;-77
2021/08/17 00:28:32;;;;;;;5.00;2.03;;;16.00;95.70;;;;;;5048243;28;19916;-78
2021/08/17 00:30:58;;;;;;;8.82;1.80;;;16.00;95.60;;;;;;5048129;28;20063;-77
2021/08/17 00:33:24;;;;;;;5.63;1.73;;;16.00;95.60;;;;;;5049320;28;20459;-78
2021/08/17 00:35:52;;;;;;;8.57;2.38;;;16.00;95.60;;;;;;5048093;28;20044;-78
2021/08/17 00:38:18;;;;;;;4.82;1.52;;;15.90;95.50;;;;;;5049363;28;20029;-76
2021/08/17 00:40:43;;;;;;;;;;;15.90;95.60;;;;;;5049650;28;20025;-79
2021/08/17 00:43:10;;;;;;;9.57;2.10;;;16.00;95.60;;;;;;5049137;28;20275;-76
2021/08/17 00:45:37;;;;;;;7.57;1.90;;;15.90;95.50;;;;;;5047745;28;20036;-77
2021/08/17 00:48:03;;;;;;;7.35;1.90;;;15.90;95.50;;;;;;5047667;28;20040;-78
2021/08/17 00:50:32;;;;;;;;;;;15.90;95.50;;;;;;5049405;28;20106;-77
2021/08/17 00:52:59;;;;;;;8.05;2.72;;;15.90;95.50;;;;;;5030913;28;19909;-78
2021/08/17 00:55:28;;;;;;;9.20;1.73;;;15.90;95.50;;;;;;5047484;28;20037;-78
2021/08/17 00:57:54;;;;;;;8.73;1.50;;;15.90;95.50;;;;;;5047626;28;20474;-77
2021/08/17 01:00:20;;;;;;;5.40;1.65;;;15.90;95.50;;;;;;5048808;28;20073;-77
2021/08/17 01:02:47;;;;;;;5.18;1.63;;;15.90;95.50;;;;;;5030881;28;20103;-78
2021/08/17 01:05:15;;;;;;;7.22;1.83;;;15.90;95.50;;;;;;5048775;28;20025;-78
2021/08/17 01:07:40;;;;;;;5.78;1.23;;;15.80;95.40;;;;;;5048710;28;20499;-77
2021/08/17 01:10:08;;;;;;;6.25;1.38;;;15.80;95.50;;;;;;5049360;28;20029;-76
2021/08/17 01:12:35;;;;;;;5.80;1.15;;;15.80;95.50;;;;;;5048634;28;20040;-78
2021/08/17 01:15:01;;;;;;;8.25;1.92;;;15.80;95.40;;;;;;5048371;28;20045;-77
2021/08/17 01:17:27;;;;;;;5.47;1.50;;;15.80;95.30;;;;;;5047273;28;20036;-77
2021/08/17 01:19:53;;;;;;;6.97;1.70;;;15.80;95.30;;;;;;5047117;28;20029;-77
2021/08/17 01:22:20;;;;;;;5.72;1.33;;;15.80;95.30;;;;;;5046110;28;20075;-77
2021/08/17 01:24:45;;;;;;;3.92;1.80;;;15.80;95.20;;;;;;5048414;28;20017;-77
2021/08/17 01:27:12;;;;;;;8.93;1.38;;;15.80;95.10;;;;;;5046835;28;20524;-78
2021/08/17 01:29:39;;;;;;;7.50;1.40;;;15.80;95.10;;;;;;5046933;28;20431;-77
2021/08/17 01:32:05;;;;;;;6.43;1.30;;;15.80;95.10;;;;;;5030455;28;20029;-77
2021/08/17 01:34:31;;;;;;;5.45;1.67;;;15.80;95.10;;;;;;5047056;28;20091;-77
2021/08/17 01:36:57;;;;;;;8.00;1.20;;;15.80;95.00;;;;;;5046795;28;20487;-77
2021/08/17 01:39:22;;;;;;;6.40;1.33;;;15.80;95.00;;;;;;5046772;28;20033;-77
2021/08/17 01:41:49;;;;;;;5.78;1.92;;;15.70;94.90;;;;;;5048105;28;20039;-76
2021/08/17 01:44:16;;;;;;;5.50;1.10;;;15.70;94.80;;;;;;5046765;28;20387;-77
2021/08/17 01:46:43;;;;;;;3.13;1.20;;;15.70;94.80;;;;;;5046795;28;20040;-76
2021/08/17 01:49:10;;;;;;;7.43;1.52;;;15.70;94.80;;;;;;5047863;28;20025;-78
2021/08/17 01:51:36;;;;;;;5.47;1.08;;;15.70;94.70;;;;;;5046587;28;20024;-78
2021/08/17 01:54:03;;;;;;;5.15;1.35;;;15.70;94.60;;;;;;5046689;28;20491;-77
2021/08/17 01:56:29;;;;;;;5.30;0.95;;;15.70;94.60;;;;;;5047655;28;20047;-77
2021/08/17 01:58:55;;;;;;;4.20;0.95;;;15.70;94.50;;;;;;5047676;28;20146;-78
2021/08/17 02:01:21;;;;;;;3.60;1.30;;;15.70;94.40;;;;;;5046339;28;20479;-78
2021/08/17 02:03:46;;;;;;;5.53;1.00;;;15.70;94.40;;;;;;5047664;28;20037;-78
2021/08/17 02:06:13;;;;;;;3.72;0.70;;;15.70;94.40;;;;;;5046486;28;20043;-76
2021/08/17 02:08:39;;;;;;;5.47;1.20;;;15.70;94.40;;;;;;5029859;28;20041;-78
2021/08/17 02:11:05;;;;;;;3.58;1.10;;;15.70;94.30;;;;;;5047690;28;20037;-78
2021/08/17 02:13:31;;;;;;;2.92;0.90;;;15.70;94.30;;;;;;5046209;28;20522;-77
2021/08/17 02:15:59;;;;;;;2.70;1.10;;;15.70;94.20;;;;;;5047550;28;20122;-77
2021/08/17 02:18:25;;;;;;;5.95;1.75;;;15.70;94.20;;;;;;5013927;28;20588;-78
2021/08/17 02:20:50;;;;;;;5.68;1.13;;;15.70;94.20;;;;;;5047445;28;20100;-78
2021/08/17 02:23:16;;;;;;;6.35;1.27;;;15.70;94.10;;;;;;5047663;28;20064;-78
2021/08/17 02:25:42;;;;;;;5.70;1.10;;;15.70;94.10;;;;;;5046241;28;20067;-77
2021/08/17 02:28:08;;;;;;;4.57;1.00;;;15.60;94.20;;;;;;5047471;28;20033;-78
2021/08/17 02:30:33;;;;;;;5.75;1.52;;;15.60;94.20;;;;;;5046075;28;20504;-76
2021/08/17 02:32:59;;;;;;;4.38;1.10;;;15.60;94.20;;;;;;5046295;28;20124;-78
2021/08/17 02:35:25;;;;;;;5.95;1.35;;;15.60;94.20;;;;;;5051400;28;20083;-77
2021/08/17 02:37:51;;;;;;;6.70;1.30;;;15.60;94.20;;;;;;5033623;28;20037;-78
2021/08/17 02:40:16;;;;;;;5.20;1.42;;;15.60;94.20;;;;;;5033513;28;20033;-78
2021/08/17 02:42:42;;;;;;;3.95;1.30;;;15.60;94.30;;;;;;5051524;28;20021;-77
2021/08/17 02:45:08;;;;;;;9.43;1.55;;;15.60;94.30;;;;;;5051359;28;20033;-76
2021/08/17 02:47:34;;;;;;;;;;;15.60;94.30;;;;;;5050485;28;20091;-77
2021/08/17 02:50:00;;;;;;;5.03;1.50;;;15.60;94.30;;;;;;5051137;28;19908;-78
2021/08/17 02:52:26;;;;;;;8.18;1.20;;;15.60;94.20;;;;;;5049926;28;20100;-77
2021/08/17 02:54:52;;;;;;;;;;;15.60;94.20;;;;;;5051653;28;20033;-77
2021/08/17 02:57:23;;;;;;;7.80;1.50;;;15.60;94.20;;;;;;5051217;28;20021;-78
2021/08/17 02:59:49;;;;;;;8.38;1.77;;;15.50;94.20;;;;;;5049914;28;20052;-78
2021/08/17 03:02:14;;;;;;;9.32;1.52;;;15.50;94.20;;;;;;5050999;28;20079;-77
2021/08/17 03:04:40;;;;;;;8.43;1.90;;;15.50;94.30;;;;;;5033095;28;20048;-76
2021/08/17 03:07:06;;;;;;;6.25;1.50;;;15.50;94.30;;;;;;5033163;28;20025;-79
2021/08/17 03:09:32;;;;;;;4.20;1.13;;;15.50;94.30;;;;;;5049526;28;20324;-77
2021/08/17 03:11:58;;;;;;;8.15;1.50;;;15.50;94.30;;;;;;5049648;28;20523;-77
2021/08/17 03:14:24;;;;;;;6.10;1.50;;;15.50;94.40;;;;;;5049464;28;20046;-78
2021/08/17 03:16:50;;;;;;;7.80;1.30;;;15.50;94.40;;;;;;5050729;28;20032;-77
2021/08/17 03:19:16;;;;;;;4.55;1.20;;;15.50;94.40;;;;;;5049302;28;20036;-77
2021/08/17 03:21:42;;;;;;;10.90;1.80;;;15.50;94.40;;;;;;5049424;28;20033;-78
2021/08/17 03:24:08;;;;;;;6.65;1.45;;;15.50;94.40;;;;;;5050682;28;20441;-77
2021/08/17 03:26:33;;;;;;;9.48;1.67;;;15.50;94.40;;;;;;5032593;28;20037;-79
2021/08/17 03:28:59;;;;;;;7.57;1.40;;;15.50;94.40;;;;;;5049237;28;20040;-78
2021/08/17 03:31:25;;;;;;;5.53;1.23;;;15.40;94.30;;;;;;5049291;28;20407;-77
2021/08/17 03:33:51;;;;;;;5.30;1.20;;;15.50;94.40;;;;;;5016051;28;20025;-78
2021/08/17 03:36:18;;;;;;;5.30;1.10;;;15.40;94.40;;;;;;5048963;28;20125;-77
2021/08/17 03:38:44;;;;;;;5.28;1.30;;;15.40;94.40;;;;;;5048944;28;20025;-77
2021/08/17 03:41:10;;;;;;;6.22;1.42;;;15.40;94.50;;;;;;5049123;28;20115;-78
2021/08/17 03:43:37;;;;;;;6.38;1.50;;;15.40;94.50;;;;;;5049183;28;20056;-77
2021/08/17 03:46:05;;;;;;;6.03;1.60;;;15.40;94.60;;;;;;5047938;28;20051;-77
2021/08/17 03:48:31;;;;;;;4.28;1.05;;;15.40;94.60;;;;;;5048682;28;20032;-78
2021/08/17 03:50:56;;;;;;;;;;;15.40;94.70;;;;;;5032580;28;20079;-78
2021/08/17 03:53:22;;;;;;;3.70;0.95;;;15.40;94.70;;;;;;5049939;28;20329;-78
2021/08/17 03:55:48;;;;;;;8.52;1.20;;;15.40;94.70;;;;;;5048576;28;20497;-78
2021/08/17 03:58:13;;;;;;;5.15;1.30;;;15.30;94.70;;;;;;5048617;28;20090;-78
2021/08/17 04:00:39;;;;;;;4.78;1.40;;;15.30;94.80;;;;;;5031853;28;20048;-77
2021/08/17 04:03:06;;;;;;;5.57;1.38;;;15.30;94.90;;;;;;5048463;28;20026;-77
2021/08/17 04:05:31;;;;;;;4.95;1.38;;;15.30;95.10;;;;;;5049828;28;20036;-78
2021/08/17 04:07:57;;;;;;;6.45;1.30;;;15.30;95.00;;;;;;5048478;28;20032;-78
2021/08/17 04:10:23;;;;;;;5.07;1.58;;;15.30;95.00;;;;;;5049804;28;20036;-78
2021/08/17 04:12:49;;;;;;;5.68;1.35;;;15.30;95.00;;;;;;5048297;28;20249;-78
2021/08/17 04:15:14;;;;;;;4.38;0.90;;;15.30;95.00;;;;;;5048603;28;20040;-78
2021/08/17 04:17:41;;;;;;;3.63;1.23;;;15.30;95.10;;;;;;5048449;28;20029;-76
2021/08/17 04:20:09;;;;;;;5.65;1.40;;;15.30;95.10;;;;;;5031741;28;20126;-77
2021/08/17 04:22:36;;;;;;;8.43;1.65;;;15.30;95.10;;;;;;5049604;28;20029;-77
2021/08/17 04:25:03;;;;;;;3.17;1.13;;;15.30;95.10;;;;;;5049466;28;20036;-76
2021/08/17 04:27:29;;;;;;;6.95;1.65;;;15.30;95.10;;;;;;5031941;28;20037;-76
2021/08/17 04:29:54;;;;;;;4.65;1.20;;;15.30;95.20;;;;;;5048027;28;20112;-77
2021/08/17 04:32:20;;;;;;;4.07;1.13;;;15.30;95.20;;;;;;5031458;28;20634;-76
2021/08/17 04:34:46;;;;;;;4.38;1.30;;;15.30;95.20;;;;;;5049354;28;20033;-77
2021/08/17 04:37:12;;;;;;;4.47;1.52;;;15.30;95.30;;;;;;5047887;28;20064;-77
2021/08/17 04:39:38;;;;;;;8.13;1.33;;;15.30;95.30;;;;;;5047723;28;20021;-77
2021/08/17 04:42:04;;;;;;;5.32;1.23;;;15.20;95.40;;;;;;5047877;28;20078;-77
2021/08/17 04:44:30;;;;;;;;;;;15.20;95.40;;;;;;5048360;28;20115;-77
2021/08/17 04:46:55;;;;;;;6.50;1.70;;;15.20;95.50;;;;;;5049083;28;19909;-77
2021/08/17 04:49:22;;;;;;;4.32;1.33;;;15.20;95.40;;;;;;5047858;28;20056;-76
2021/08/17 04:51:47;;;;;;;;;;;15.20;95.60;;;;;;5049334;28;20037;-77
2021/08/17 04:54:13;;;;;;;5.22;1.10;;;15.20;95.70;;;;;;5048953;28;19950;-78
2021/08/17 04:56:39;;;;;;;4.85;1.40;;;15.20;95.70;;;;;;5048746;28;20037;-78
2021/08/17 04:59:05;;;;;;;7.75;1.55;;;15.20;95.80;;;;;;5047413;28;20132;-78
2021/08/17 05:01:30;;;;;;;5.13;1.55;;;15.10;95.90;;;;;;5048767;28;20053;-78
2021/08/17 05:04:00;;;;;;;5.63;1.45;;;15.10;96.00;;;;;;5048724;28;20673;-77
2021/08/17 05:06:25;;;;;;;5.85;1.45;;;15.10;96.10;;;;;;5030772;28;20033;-78
2021/08/17 05:08:51;;;;;;;8.32;1.40;;;15.10;96.20;;;;;;5048680;28;20108;-78
2021/08/17 05:11:17;;;;;;;6.15;1.75;;;15.10;96.20;;;;;;5048723;28;20495;-78
2021/08/17 05:13:42;;;;;;;7.82;1.55;;;15.10;96.30;;;;;;5030761;28;20558;-78
2021/08/17 05:16:10;;;;;;;4.90;1.42;;;15.10;96.30;;;;;;5047105;28;20056;-77
2021/08/17 05:18:36;;;;;;;7.00;1.60;;;15.10;96.40;;;;;;5047112;28;20022;-77
2021/08/17 05:21:02;;;;;;;9.80;1.52;;;15.00;96.40;;;;;;5047094;28;20287;-77
2021/08/17 05:23:28;;;;;;;6.05;1.50;;;15.10;96.50;;;;;;5048337;28;20390;-76
2021/08/17 05:25:54;;;;;;;5.57;1.40;;;15.00;96.40;;;;;;5047122;28;20033;-76
2021/08/17 05:28:21;;;;;;;4.80;1.40;;;15.10;96.50;;;;;;5046824;28;20025;-77
2021/08/17 05:30:47;;;;;;;7.05;1.60;;;15.00;96.50;;;;;;5046922;28;20061;-78
2021/08/17 05:33:13;;;;;;;;;;;15.10;96.50;;;;;;5014347;28;20033;-76
2021/08/17 05:35:40;;;;;;;7.82;1.42;;;15.10;96.60;;;;;;5046852;28;19930;-77
2021/08/17 05:38:07;;;;;;;9.05;1.63;;;15.10;96.40;;;;;;5048221;28;20017;-76
2021/08/17 05:40:32;;;;;;;5.45;1.60;;;15.20;96.40;;;;;;5048138;28;20033;-75
2021/08/17 05:42:58;;;;;;;5.75;1.40;;;15.20;96.40;;;;;;5048044;28;20415;-76
2021/08/17 05:45:24;;;;;;;5.85;1.35;;;15.20;96.40;;;;;;5048117;28;20388;-77
2021/08/17 05:47:50;;;;;;;3.83;1.25;;;15.20;96.40;;;;;;5030360;28;20044;-75
2021/08/17 05:50:17;;;;;;;4.88;1.48;;;15.20;96.40;;;;;;5030017;28;20037;-77
2021/08/17 05:52:43;;;;;;;10.75;2.20;;;15.20;96.40;;;;;;5046764;28;20403;-76
2021/08/17 05:55:10;;;;;;;5.97;1.30;;;15.30;96.40;;;;;;5047771;28;20036;-76
2021/08/17 05:57:36;;;;;;;5.70;1.70;;;15.30;96.40;;;;;;5047264;28;20028;-76
2021/08/17 06:00:04;;;;;;;8.75;1.80;;;15.30;96.30;;;;;;5047681;28;20383;-76
2021/08/17 06:02:29;;;;;;;4.15;1.27;;;15.40;96.30;;;;;;5047644;28;20036;-76
2021/08/17 06:04:55;;;;;;;4.65;1.30;;;15.40;96.20;;;;;;5029751;28;20025;-76
2021/08/17 06:07:21;;;;;;;7.75;1.60;;;15.50;96.20;;;;;;5046457;28;20614;-76
2021/08/17 06:09:47;;;;;;;7.80;2.00;;;15.50;96.10;;;;;;5046975;28;20448;-76
2021/08/17 06:12:12;;;;;;;5.70;1.70;;;15.60;96.00;;;;;;5046480;28;20038;-76
2021/08/17 06:14:38;;;;;;;6.72;1.75;;;15.60;96.00;;;;;;5044004;28;20564;-76
2021/08/17 06:17:04;;;;;;;6.68;1.70;;;15.60;96.00;;;;;;5045929;28;20051;-75
2021/08/17 06:19:30;;;;;;;5.65;1.45;;;15.60;95.90;;;;;;5046042;28;20491;-78
2021/08/17 06:21:56;;;;;;;5.85;1.30;;;15.60;95.90;;;;;;5047423;28;20064;-75
2021/08/17 06:24:22;;;;;;;4.80;1.55;;;15.60;95.90;;;;;;5046001;28;20060;-76
2021/08/17 06:26:48;;;;;;;9.00;1.80;;;15.60;95.80;;;;;;5047040;28;20525;-76
2021/08/17 06:29:14;;;;;;;4.15;1.42;;;15.60;95.80;;;;;;5047176;28;20033;-77
2021/08/17 06:31:40;;;;;;;6.95;1.80;;;15.70;95.90;;;;;;5046091;28;20468;-78
2021/08/17 06:34:06;;;;;;;5.45;1.70;;;15.70;95.80;;;;;;5045951;28;20040;-77
2021/08/17 06:36:32;;;;;;;6.88;1.60;;;15.70;95.80;;;;;;5045988;28;20525;-76
2021/08/17 06:38:57;;;;;;;6.45;2.30;;;15.70;95.70;;;;;;5046078;28;20116;-76
2021/08/17 06:41:23;;;;;;;6.57;1.45;;;15.70;95.80;;;;;;5029281;28;20033;-77
2021/08/17 06:43:49;;;;;;;4.72;1.83;;;15.70;95.80;;;;;;5046038;28;20049;-76
2021/08/17 06:46:15;;;;;;;5.88;1.45;;;15.70;95.80;;;;;;5047364;28;20443;-77
2021/08/17 06:48:41;;;;;;;5.75;1.40;;;15.70;95.80;;;;;;5047110;28;20021;-76
2021/08/17 06:51:08;;;;;;;4.30;1.83;;;15.70;95.80;;;;;;5047281;28;20052;-76
2021/08/17 06:53:34;;;;;;;5.78;1.48;;;15.80;95.80;;;;;;5047203;28;20427;-77
2021/08/17 06:55:59;;;;;;;7.72;1.70;;;15.80;95.80;;;;;;5045706;28;20040;-77
2021/08/17 06:58:25;;;;;;;7.80;1.90;;;15.80;95.80;;;;;;5045902;28;20036;-76
2021/08/17 07:00:51;;;;;;;6.55;1.42;;;15.80;95.70;;;;;;5045538;28;20052;-77
2021/08/17 07:03:17;;;;;;;4.90;1.38;;;15.80;95.70;;;;;;5045601;28;20488;-78
2021/08/17 07:05:46;;;;;;;6.55;2.45;;;15.90;95.70;;;;;;5046814;28;20071;-76
2021/08/17 07:08:12;;;;;;;5.03;1.60;;;15.90;95.70;;;;;;5046670;28;20060;-76
2021/08/17 07:10:38;;;;;;;;;;;15.90;95.80;;;;;;5046954;28;20021;-76
2021/08/17 07:13:04;;;;;;;7.95;1.85;;;15.90;95.80;;;;;;5028972;28;19916;-77
2021/08/17 07:15:30;;;;;;;7.70;1.80;;;16.00;95.70;;;;;;5045094;28;20114;-77
2021/08/17 07:17:56;;;;;;;7.00;1.90;;;16.00;95.70;;;;;;5045487;28;20029;-78
2021/08/17 07:20:22;;;;;;;7.45;2.15;;;16.00;95.70;;;;;;5046379;28;20029;-77
2021/08/17 07:22:47;;;;;;;6.13;1.63;;;16.10;95.70;;;;;;5049174;28;20032;-76
2021/08/17 07:25:13;;;;;;;7.25;2.00;;;16.10;95.60;;;;;;5048938;28;20037;-76
2021/08/17 07:27:39;;;;;;;7.18;2.17;;;16.20;95.40;;;;;;5050486;28;20075;-75
2021/08/17 07:30:07;;;;;;;10.07;2.13;;;16.20;95.40;;;;;;5050227;28;20096;-77
2021/08/17 07:32:34;;;;;;;6.07;1.98;;;16.20;95.30;;;;;;5050254;28;20220;-77
2021/08/17 07:35:00;;;;;;;12.93;2.90;;;16.20;95.30;;;;;;5050298;28;20493;-78
2021/08/17 07:37:25;;;;;;;8.95;2.05;;;16.10;95.30;;;;;;5015949;28;20029;-77
2021/08/17 07:39:51;;;;;;;8.30;1.95;;;16.10;95.40;;;;;;5032049;28;20041;-76
2021/08/17 07:42:17;;;;;;;9.70;2.30;;;16.10;95.60;;;;;;5050118;28;20090;-76
2021/08/17 07:44:43;;;;;;;9.52;3.95;;;16.10;95.40;;;;;;5032468;28;20392;-77
2021/08/17 07:47:09;;;;;;;6.00;2.13;;;16.10;95.50;;;;;;5031869;28;20126;-77
2021/08/17 07:49:34;;;;;;;5.78;2.00;;;16.10;95.50;;;;;;5049779;28;20107;-77
2021/08/17 07:52:00;;;;;;;5.55;1.90;;;16.10;95.50;;;;;;5031946;28;20409;-78
2021/08/17 07:54:27;;;;;;;6.47;2.33;;;16.10;95.50;;;;;;5047810;28;20452;-78
2021/08/17 07:56:53;;;;;;;6.85;1.98;;;16.10;95.50;;;;;;5048125;28;20040;-77
2021/08/17 07:59:19;;;;;;;8.63;2.30;;;16.10;95.50;;;;;;5031653;28;20456;-76
2021/08/17 08:01:45;;;;;;;5.88;1.90;;;16.10;95.50;;;;;;5049740;28;20029;-76
2021/08/17 08:04:11;;;;;;;8.50;2.60;;;16.20;95.60;;;;;;5048171;28;20483;-76
2021/08/17 08:06:36;;;;;;;8.38;2.63;;;16.20;95.50;;;;;;5048322;28;20044;-76
2021/08/17 08:09:03;;;;;;;6.25;2.67;;;16.20;95.60;;;;;;5049316;28;20033;-76
2021/08/17 08:11:29;;;;;;;8.82;2.40;;;16.20;95.60;;;;;;5049334;28;20033;-72
2021/08/17 08:13:57;;;;;;;10.57;2.40;;;16.30;95.60;;;;;;5047862;28;20132;-76
2021/08/17 08:16:24;;;;;;;8.15;2.08;;;16.20;95.60;;;;;;5049364;28;20033;-77
2021/08/17 08:18:49;;;;;;;8.27;2.85;;;16.30;95.70;;;;;;5047525;28;20044;-77
2021/08/17 08:21:15;;;;;;;4.45;1.63;;;16.30;95.80;;;;;;5047823;28;20041;-78
2021/08/17 08:23:41;;;;;;;7.10;2.10;;;16.40;95.70;;;;;;5047597;28;20037;-77
2021/08/17 08:26:06;;;;;;;8.27;2.30;;;16.50;95.60;;;;;;5049085;28;20086;-76
2021/08/17 08:28:32;;;;;;;8.80;2.40;;;16.50;95.60;;;;;;5048997;28;20040;-76
2021/08/17 08:30:58;;;;;;;7.72;2.53;;;16.50;95.60;;;;;;5047523;28;20083;-77
2021/08/17 08:33:24;;;;;;;7.15;1.88;;;16.60;95.60;;;;;;5031324;28;20040;-76
2021/08/17 08:35:49;;;;;;;7.35;2.47;;;16.60;95.60;;;;;;5047477;28;20067;-77
2021/08/17 08:38:15;;;;;;;7.38;2.50;;;16.50;95.70;;;;;;5032145;28;20109;-76
2021/08/17 08:40:45;;;;;;;8.45;2.55;;;16.50;95.80;;;;;;5049164;28;20024;-78
2021/08/17 08:43:11;;;;;;;4.72;1.90;;;16.50;95.90;;;;;;5048635;28;20112;-78
2021/08/17 08:45:38;;;;;;;7.32;2.83;;;16.60;96.00;;;;;;5048987;28;20021;-77
2021/08/17 08:48:05;;;;;;;7.30;2.78;;;16.60;96.10;;;;;;5050832;28;20037;-77
2021/08/17 08:50:33;;;;;;;7.10;2.17;;;16.60;96.20;;;;;;5049452;28;20456;-78
2021/08/17 08:52:59;;;;;;;7.28;2.63;;;16.60;96.30;;;;;;5034948;28;20033;-77
2021/08/17 08:55:26;;;;;;;5.90;2.50;;;16.60;96.50;;;;;;5049370;28;20102;-78
2021/08/17 08:57:52;;;;;;;7.55;2.08;;;16.60;96.60;;;;;;5048812;28;20101;-75
2021/08/17 09:00:18;;;;;;;5.60;1.80;;;16.60;96.70;;;;;;5032219;28;20044;-76
2021/08/17 09:02:43;;;;;;;;;;;16.80;96.70;;;;;;5032858;28;20079;-76
2021/08/17 09:05:09;;;;;;;9.00;3.17;;;16.80;96.70;;;;;;5049627;28;20317;-76
2021/08/17 09:07:36;;;;;;;5.53;1.90;;;16.90;96.70;;;;;;5047659;28;20027;-78
2021/08/17 09:10:11;;;;;;;9.25;1.90;;;17.00;96.80;;;;;;5049850;28;20075;-77
2021/08/17 09:12:44;;;;;;;7.05;1.95;;;17.00;96.80;;;;;;5047757;28;20021;-78
2021/08/17 09:15:31;;;;;;;9.32;2.63;;;17.10;96.70;;;;;;5050019;28;20037;-78
2021/08/17 09:18:04;;;;;;;6.93;2.40;;;17.20;96.80;;;;;;5049146;28;20025;-78
2021/08/17 09:20:39;;;;;;;7.20;2.47;;;17.30;96.80;;;;;;5049971;28;20021;-76
2021/08/17 09:23:24;;;;;;;7.33;2.27;;;17.40;96.80;;;;;;5048244;28;20053;-78
2021/08/17 09:25:51;;;;;;;9.02;2.45;;;17.50;96.70;;;;;;5038735;28;20333;-76
2021/08/17 09:28:36;;;;;;;6.45;1.70;;;17.50;96.50;;;;;;5045391;28;20025;-78
2021/08/17 09:31:38;;;;;;;5.35;1.70;;;17.50;96.50;;;;;;5028452;28;20112;-77
2021/08/17 09:34:05;;;;;;;5.97;1.88;;;17.50;96.70;;;;;;5032821;28;20079;-78
2021/08/17 09:36:40;;;;;;;5.90;1.98;;;17.50;96.50;;;;;;5043137;28;20060;-77
2021/08/17 09:39:06;;;;;;;6.57;1.40;;;17.50;96.50;;;;;;5035168;28;20100;-76
2021/08/17 09:41:33;;;;;;;6.82;2.83;;;17.60;96.50;;;;;;5039427;28;20017;-76
2021/08/17 09:44:09;;;;;;;;;;;17.60;96.40;;;;;;5036488;28;20017;-79
2021/08/17 09:46:37;;;;;;;6.93;1.92;;;17.60;96.30;;;;;;5034277;28;19905;-76
2021/08/17 09:49:26;;;;;;;5.57;1.98;;;17.70;96.30;;;;;;5030994;28;20025;-77
2021/08/17 09:51:53;;;;;;;6.50;1.70;;;17.80;96.30;;;;;;5032425;28;20029;-77
2021/08/17 09:54:22;;;;;;;9.95;2.30;;;17.90;96.30;;;;;;5028307;28;20063;-78
2021/08/17 09:56:54;;;;;;;4.93;2.00;;;18.00;96.20;;;;;;5030373;28;20040;-78
2021/08/17 09:59:20;;;;;;;5.57;1.70;;;18.20;96.20;;;;;;5027661;28;20474;-78
2021/08/17 10:01:46;;;;;;;5.63;1.65;;;18.40;96.20;;;;;;5030562;28;20034;-78
2021/08/17 10:04:15;;;;;;;7.68;2.22;;;18.60;95.70;;;;;;5031777;28;20032;-78
2021/08/17 10:06:42;;;;;;;5.15;1.60;;;18.80;95.60;;;;;;5034882;28;20032;-78
2021/08/17 10:09:11;;;;;;;5.30;2.28;;;18.90;95.30;;;;;;5033169;28;20428;-77
2021/08/17 10:11:37;;;;;;;9.95;2.65;;;19.00;95.10;;;;;;5032900;28;20029;-76
2021/08/17 10:14:03;;;;;;;6.22;2.25;;;19.10;94.90;;;;;;5017692;28;20419;-76
2021/08/17 10:16:29;;;;;;;5.88;2.40;;;19.10;94.80;;;;;;5039424;28;20029;-76
2021/08/17 10:18:57;;;;;;;5.72;1.63;;;19.20;94.60;;;;;;5037036;28;20081;-77
2021/08/17 10:21:23;;;;;;;4.28;1.85;;;19.10;94.40;;;;;;5034213;28;20133;-75
2021/08/17 10:23:49;;;;;;;7.38;2.47;;;19.10;94.40;;;;;;5039904;28;20040;-78
2021/08/17 10:26:33;;;;;;;5.63;2.67;;;19.20;94.40;;;;;;5033605;28;20025;-76
2021/08/17 10:28:59;;;;;;;4.57;2.13;;;19.30;94.30;;;;;;5032258;28;20061;-76
2021/08/17 10:31:32;;;;;;;6.50;2.50;;;19.30;94.10;;;;;;5032718;28;20029;-77
2021/08/17 10:34:13;;;;;;;8.02;2.90;;;19.30;94.20;;;;;;5039555;28;20528;-78
2021/08/17 10:36:41;;;;;;;5.18;1.88;;;19.20;93.90;;;;;;5029690;28;20120;-77
2021/08/17 10:39:27;;;;;;;6.68;1.88;;;19.20;94.00;;;;;;5031289;28;20079;-80
2021/08/17 10:41:54;;;;;;;5.00;2.05;;;19.10;93.90;;;;;;5035876;28;20034;-76
2021/08/17 10:44:22;;;;;;;5.32;2.25;;;19.10;94.00;;;;;;5039336;28;20443;-78
2021/08/17 10:46:49;;;;;;;7.60;2.20;;;19.10;94.00;;;;;;5036828;28;20033;-79
2021/08/17 10:49:29;;;;;;;6.40;2.20;;;19.20;94.10;;;;;;5041885;28;20028;-76
2021/08/17 10:51:59;;;;;;;7.35;3.15;;;19.40;93.90;;;;;;5038509;28;20529;-77
2021/08/17 10:54:26;;;;;;;5.63;2.08;;;19.50;93.80;;;;;;5030432;28;20422;-78
2021/08/17 10:56:51;;;;;;;6.20;2.30;;;19.70;93.70;;;;;;5035731;28;20598;-76
2021/08/17 10:59:36;;;;;;;;;;;19.90;93.60;;;;;;5043519;28;20041;-76
2021/08/17 11:02:02;;;;;;;5.20;1.90;;;20.10;93.50;;;;;;5035455;28;19971;-79
2021/08/17 11:04:40;;;;;;;;;;;20.40;93.20;;;;;;5032271;28;20025;-79
2021/08/17 11:07:21;;;;;;;;;;;20.70;93.10;;;;;;5040256;28;19946;-76
2021/08/17 11:09:46;;;;;;;7.53;2.42;;;20.80;92.90;;;;;;5034164;28;19955;-79
2021/08/17 11:12:12;;;;;;;;;;;20.90;92.50;;;;;;5032145;28;20030;-78
2021/08/17 11:14:40;;;;;;;5.20;1.77;;;20.90;92.30;;;;;;5037773;28;19963;-78
2021/08/17 11:17:17;;;;;;;5.88;1.90;;;20.80;91.90;;;;;;5017428;28;20115;-78
2021/08/17 11:19:45;;;;;;;6.38;2.60;;;20.70;91.80;;;;;;5039081;28;20021;-77
2021/08/17 11:22:20;;;;;;;3.05;1.35;;;20.60;91.90;;;;;;5042613;28;20016;-79
2021/08/17 11:24:53;;;;;;;4.07;1.50;;;20.60;91.90;;;;;;5048728;28;20021;-81
2021/08/17 11:27:22;;;;;;;5.07;1.77;;;20.70;91.70;;;;;;5035913;28;20051;-79
2021/08/17 11:29:56;;;;;;;3.63;1.48;;;20.70;91.60;;;;;;5036066;28;20473;-78
2021/08/17 11:32:31;;;;;;;4.45;1.55;;;20.70;91.50;;;;;;5033332;28;20034;-76
2021/08/17 11:35:03;;;;;;;2.80;1.20;;;20.60;91.40;;;;;;5040278;28;20033;-78
2021/08/17 11:37:30;;;;;;;5.43;2.60;;;20.60;91.30;;;;;;5032387;28;20489;-79
2021/08/17 11:39:59;;;;;;;7.47;1.80;;;20.60;91.30;;;;;;5035173;28;20532;-75
2021/08/17 11:42:31;;;;;;;4.50;1.50;;;20.60;91.40;;;;;;5042788;28;20018;-79
2021/08/17 11:44:57;;;;;;;3.00;1.52;;;20.60;91.40;;;;;;5041465;28;20066;-75
2021/08/17 11:47:22;;;;;;;;;;;20.70;91.30;;;;;;5043397;28;20100;-77
2021/08/17 11:49:51;;;;;;;5.47;2.03;;;20.80;91.40;;;;;;5040001;28;19905;-80
2021/08/17 11:52:25;;;;;;;4.18;1.17;;;20.80;91.20;;;;;;5048294;28;20029;-79
2021/08/17 11:54:54;;;;;;;4.53;1.52;;;20.80;91.10;;;;;;5043171;28;20032;-76
2021/08/17 11:57:28;;;;;;;5.35;2.47;;;20.80;91.00;;;;;;5034228;28;20036;-76
2021/08/17 11:59:54;;;;;;;4.78;1.55;;;20.70;91.10;;;;;;5041361;28;20017;-77
2021/08/17 12:02:25;;;;;;;4.22;1.55;;;20.70;91.10;;;;;;5049005;28;20025;-78
2021/08/17 12:04:53;;;;;;;2.85;1.20;;;20.70;91.10;;;;;;5031222;28;20017;-78
2021/08/17 12:07:20;;;;;;;2.83;1.17;;;20.70;91.10;;;;;;5038070;28;20060;-76
2021/08/17 12:09:46;;;;;;;4.20;1.85;;;20.60;91.00;;;;;;5040979;28;20541;-76
2021/08/17 12:12:15;;;;;;;2.83;1.10;;;20.70;91.10;;;;;;5037614;28;20103;-77
2021/08/17 12:14:41;;;;;;;5.80;2.15;;;20.70;91.10;;;;;;5041509;28;20077;-77
2021/08/17 12:17:09;;;;;;;4.95;2.20;;;20.70;91.20;;;;;;5032861;28;20030;-79
2021/08/17 12:19:42;;;;;;;7.53;1.80;;;20.70;91.10;;;;;;5033670;28;20052;-79
2021/08/17 12:22:19;;;;;;;3.17;1.30;;;20.70;91.10;;;;;;5043930;28;20523;-80
2021/08/17 12:24:48;;;;;;;4.28;2.00;;;20.70;91.10;;;;;;5041564;28;20021;-77
2021/08/17 12:27:25;;;;;;;3.30;1.65;;;20.80;91.00;;;;;;5039049;28;20120;-77
2021/08/17 12:29:52;;;;;;;4.95;1.83;;;20.90;90.90;;;;;;5036788;28;20124;-79
2021/08/17 12:32:28;;;;;;;6.78;2.92;;;21.10;91.00;;;;;;5040806;28;20060;-80
2021/08/17 12:35:02;;;;;;;5.55;2.60;;;21.30;90.70;;;;;;5020924;28;20056;-79
2021/08/17 12:37:37;;;;;;;6.43;2.50;;;21.20;90.40;;;;;;5037938;28;20552;-79
2021/08/17 12:40:10;;;;;;;5.45;2.45;;;21.10;90.30;;;;;;5047959;28;20013;-79
2021/08/17 12:42:44;;;;;;;4.55;2.20;;;21.00;90.40;;;;;;5050095;28;20112;-77
2021/08/17 12:45:15;;;;;;;8.85;3.30;;;20.90;90.50;;;;;;5034667;28;20021;-80
2021/08/17 12:47:59;;;;;;;3.40;1.60;;;20.90;90.70;;;;;;5044513;28;20025;-81
2021/08/17 12:50:25;;;;;;;4.10;1.70;;;20.90;90.80;;;;;;5040730;28;20021;-80
2021/08/17 12:52:51;;;;;;;;;;;20.90;90.80;;;;;;5026215;28;20025;-78